createdAt,value
2019-02-15T00:01:39.033Z,14.50
2019-02-15T00:04:07.717Z,14.15
2019-02-15T00:06:36.389Z,15.13
2019-02-15T00:09:05.820Z,14.60
2019-02-15T00:11:34.516Z,13.88
2019-02-15T00:14:03.204Z,14.68
2019-02-15T00:16:31.906Z,14.47
2019-02-15T00:19:19.705Z,14.07
2019-02-15T00:21:52.910Z,12.10
2019-02-15T00:24:21.569Z,13.48
2019-02-15T00:26:50.293Z,13.70
2019-02-15T00:29:18.957Z,13.20
2019-02-15T00:31:47.679Z,14.43
2019-02-15T00:34:16.348Z,15.28
2019-02-15T00:36:45.040Z,13.65
2019-02-15T00:39:13.663Z,14.47
2019-02-15T00:41:42.418Z,15.05
2019-02-15T00:44:11.140Z,15.13
2019-02-15T00:46:50.358Z,14.20
2019-02-15T00:49:28.096Z,12.45
2019-02-15T00:52:06.472Z,14.53
2019-02-15T00:54:45.386Z,15.13
2019-02-15T00:57:42.219Z,14.95
2019-02-15T01:00:44.967Z,15.50
2019-02-15T01:03:28.830Z,15.60
2019-02-15T01:06:06.646Z,16.17
2019-02-15T01:08:54.424Z,15.50
2019-02-15T01:11:32.687Z,15.05
2019-02-15T01:14:01.420Z,15.32
2019-02-15T01:16:30.185Z,15.63
2019-02-15T01:18:58.939Z,14.10
2019-02-15T01:21:27.655Z,15.98
2019-02-15T01:23:56.326Z,14.20
2019-02-15T01:26:31.993Z,14.80
2019-02-15T01:29:18.508Z,15.35
2019-02-15T01:31:58.887Z,14.78
2019-02-15T01:35:01.877Z,14.58
2019-02-15T01:37:36.571Z,13.53
2019-02-15T01:40:24.298Z,14.80
2019-02-15T01:43:00.022Z,13.32
2019-02-15T01:45:47.413Z,12.98
2019-02-15T01:48:16.100Z,12.25
2019-02-15T01:50:44.789Z,12.50
2019-02-15T01:53:13.476Z,13.80
2019-02-15T01:55:42.153Z,12.37
2019-02-15T01:58:10.824Z,12.73
2019-02-15T02:00:39.680Z,13.50
2019-02-15T02:03:08.382Z,12.85
2019-02-15T02:05:37.030Z,13.25
2019-02-15T02:08:06.188Z,13.03
2019-02-15T02:10:34.888Z,12.70
2019-02-15T02:13:03.628Z,13.95
2019-02-15T02:15:32.381Z,12.53
2019-02-15T02:18:01.054Z,12.55
2019-02-15T02:20:29.753Z,13.90
2019-02-15T02:22:58.526Z,12.50
2019-02-15T02:25:27.187Z,12.65
2019-02-15T02:27:55.876Z,13.35
2019-02-15T02:30:24.585Z,13.03
2019-02-15T02:32:53.340Z,12.65
2019-02-15T02:35:22.023Z,12.18
2019-02-15T02:37:50.709Z,12.90
2019-02-15T02:40:19.379Z,12.07
2019-02-15T02:42:48.053Z,12.73
2019-02-15T02:45:16.720Z,13.55
2019-02-15T02:47:45.412Z,12.55
2019-02-15T02:50:14.142Z,13.10
2019-02-15T02:52:42.804Z,12.73
2019-02-15T02:55:11.499Z,12.75
2019-02-15T02:57:40.172Z,13.00
2019-02-15T03:00:08.882Z,12.53
2019-02-15T03:02:37.628Z,12.80
2019-02-15T03:05:06.562Z,13.18
2019-02-15T03:07:35.228Z,12.43
2019-02-15T03:10:04.048Z,11.33
2019-02-15T03:12:32.788Z,13.22
2019-02-15T03:15:01.507Z,13.55
2019-02-15T03:17:30.284Z,12.15
2019-02-15T03:19:59.053Z,13.53
2019-02-15T03:22:27.691Z,11.68
2019-02-15T03:24:56.354Z,13.45
2019-02-15T03:27:24.996Z,13.08
2019-02-15T03:29:53.669Z,13.35
2019-02-15T03:32:22.382Z,13.72
2019-02-15T03:34:51.033Z,13.85
2019-02-15T03:37:56.774Z,14.53
2019-02-15T03:40:28.443Z,14.03
2019-02-15T03:42:57.178Z,14.10
2019-02-15T03:45:25.849Z,14.43
2019-02-15T03:47:54.528Z,13.48
2019-02-15T03:50:23.308Z,14.87
2019-02-15T03:52:51.892Z,14.68
2019-02-15T03:55:20.576Z,13.90
2019-02-15T03:57:49.260Z,14.33
2019-02-15T04:00:17.987Z,14.70
2019-02-15T04:02:46.662Z,13.80
2019-02-15T04:05:15.456Z,14.23
2019-02-15T04:07:44.189Z,14.30
2019-02-15T04:10:12.892Z,15.28
2019-02-15T04:12:41.560Z,14.83
2019-02-15T04:15:10.307Z,16.05
2019-02-15T04:17:38.991Z,16.32
2019-02-15T04:20:08.517Z,16.35
2019-02-15T04:22:37.204Z,15.53
2019-02-15T04:25:06.075Z,15.93
2019-02-15T04:27:34.793Z,17.20
2019-02-15T04:30:03.642Z,14.83
2019-02-15T04:32:32.368Z,16.45
2019-02-15T04:35:00.977Z,15.20
2019-02-15T04:37:29.657Z,15.63
2019-02-15T04:39:58.308Z,15.93
2019-02-15T04:42:27.014Z,16.10
2019-02-15T04:44:55.777Z,15.30
2019-02-15T04:47:24.425Z,15.68
2019-02-15T04:49:53.266Z,15.05
2019-02-15T04:52:22.018Z,14.60
2019-02-15T04:54:50.678Z,14.60
2019-02-15T04:57:19.430Z,14.87
2019-02-15T04:59:48.137Z,15.60
2019-02-15T05:02:16.843Z,16.00
2019-02-15T05:04:45.529Z,16.23
2019-02-15T05:07:14.238Z,16.17
2019-02-15T07:56:47.442Z,23.67
2019-02-15T08:09:10.643Z,25.50
2019-02-15T08:12:14.388Z,24.00
2019-02-15T08:18:24.562Z,25.23
2019-02-15T08:21:35.452Z,24.98
2019-02-15T08:24:50.165Z,24.25
2019-02-15T08:27:41.792Z,23.07
2019-02-15T08:30:34.662Z,24.57
2019-02-15T08:36:24.303Z,23.42
2019-02-15T08:39:04.466Z,23.95
2019-02-15T08:45:10.529Z,24.63
2019-02-15T08:48:11.632Z,24.32
2019-02-15T08:54:34.218Z,24.37
2019-02-15T08:58:01.176Z,24.45
2019-02-15T09:01:10.910Z,24.20
2019-02-15T09:11:02.556Z,25.05
2019-02-15T09:14:18.020Z,25.97
2019-02-15T09:17:31.353Z,23.95
2019-02-15T09:20:25.638Z,24.77
2019-02-15T09:26:20.632Z,26.63
2019-02-15T09:29:22.993Z,23.95
2019-02-15T09:32:29.369Z,24.17
2019-02-15T09:35:43.898Z,23.10
2019-02-15T09:38:32.136Z,22.47
2019-02-15T09:41:54.017Z,23.57
2019-02-15T09:46:30.634Z,24.23
2019-02-15T09:48:06.532Z,22.37
2019-02-15T09:54:10.614Z,24.17
2019-02-15T09:56:57.814Z,22.90
2019-02-15T10:10:06.562Z,22.13
2019-02-15T10:12:35.333Z,22.53
2019-02-15T10:15:03.951Z,22.80
2019-02-15T10:17:32.710Z,22.13
2019-02-15T10:20:01.375Z,21.60
2019-02-15T10:22:30.095Z,22.27
2019-02-15T10:24:58.706Z,22.10
2019-02-15T10:27:27.322Z,21.70
2019-02-15T10:29:56.060Z,21.80
2019-02-15T10:32:24.854Z,21.70
2019-02-15T10:34:53.467Z,23.07
2019-02-15T10:37:22.174Z,22.77
2019-02-15T10:39:50.859Z,20.60
2019-02-15T10:42:19.579Z,21.97
2019-02-15T10:44:48.277Z,20.17
2019-02-15T10:47:24.647Z,21.20
2019-02-15T10:49:47.276Z,20.57
2019-02-15T10:52:15.988Z,19.77
2019-02-15T10:54:44.670Z,20.80
2019-02-15T10:57:13.342Z,20.40
2019-02-15T10:59:42.043Z,19.57
2019-02-15T11:02:10.749Z,17.47
2019-02-15T11:04:41.096Z,19.47
2019-02-15T11:07:09.869Z,18.43
2019-02-15T11:09:57.601Z,18.93
2019-02-15T11:12:26.567Z,20.90
2019-02-15T11:14:55.259Z,19.97
2019-02-15T11:17:23.979Z,19.37
2019-02-15T11:19:52.765Z,19.13
2019-02-15T11:22:21.393Z,19.63
2019-02-15T11:24:50.005Z,19.20
2019-02-15T11:27:18.677Z,18.80
2019-02-15T11:29:47.347Z,18.70
2019-02-15T11:32:17.107Z,20.00
2019-02-15T11:34:45.728Z,18.30
2019-02-15T11:37:14.448Z,17.30
2019-02-15T11:39:43.123Z,15.87
2019-02-15T11:42:11.809Z,16.43
2019-02-15T11:44:40.601Z,18.10
2019-02-15T11:47:09.179Z,16.67
2019-02-15T11:49:38.019Z,18.20
2019-02-15T11:52:07.158Z,17.20
2019-02-15T11:54:35.928Z,17.40
2019-02-15T11:57:04.644Z,16.37
2019-02-15T11:59:33.396Z,16.87
2019-02-15T12:02:06.138Z,16.70
2019-02-15T12:04:32.626Z,16.23
2019-02-15T12:07:01.345Z,17.93
2019-02-15T12:09:30.008Z,17.80
2019-02-15T12:11:58.813Z,17.10
2019-02-15T12:14:27.518Z,16.93
2019-02-15T12:17:05.259Z,16.73
2019-02-15T12:19:26.673Z,15.17
2019-02-15T12:21:55.388Z,18.37
2019-02-15T12:24:23.958Z,17.90
2019-02-15T12:26:52.695Z,16.60
2019-02-15T12:29:21.505Z,16.93
2019-02-15T12:31:50.236Z,17.33
2019-02-15T12:34:19.014Z,16.80
2019-02-15T12:36:47.589Z,17.93
2019-02-15T12:39:16.293Z,16.97
2019-02-15T12:41:44.988Z,17.77
2019-02-15T12:44:13.716Z,16.53
2019-02-15T12:46:42.436Z,16.70
2019-02-15T12:49:11.138Z,17.30
2019-02-15T12:51:39.834Z,16.77
2019-02-15T12:54:08.501Z,16.30
2019-02-15T12:56:37.208Z,16.07
2019-02-15T12:59:05.944Z,15.73
2019-02-15T13:01:34.687Z,16.90
2019-02-15T13:04:03.400Z,15.63
2019-02-15T13:06:32.030Z,16.87
2019-02-15T13:09:00.689Z,15.90
2019-02-15T13:11:29.328Z,17.27
2019-02-15T13:13:58.034Z,15.93
2019-02-15T13:16:26.802Z,15.97
2019-02-15T13:18:57.029Z,16.40
2019-02-15T13:21:25.936Z,16.37
2019-02-15T13:23:54.603Z,15.73
2019-02-15T13:26:23.372Z,14.43
2019-02-15T13:28:52.176Z,16.03
2019-02-15T13:31:23.161Z,14.63
2019-02-15T13:33:52.108Z,14.87
2019-02-15T13:36:20.820Z,15.43
2019-02-15T13:38:49.578Z,16.37
2019-02-15T13:41:18.248Z,15.37
2019-02-15T13:43:46.932Z,14.20
2019-02-15T13:46:15.673Z,14.37
2019-02-15T13:48:44.389Z,15.60
2019-02-15T13:51:13.107Z,14.60
2019-02-15T13:53:41.865Z,14.20
2019-02-15T13:56:10.573Z,14.07
2019-02-15T13:58:39.330Z,14.83
2019-02-15T14:01:08.027Z,14.73
2019-02-15T14:03:36.701Z,15.47
2019-02-15T14:06:05.379Z,15.67
2019-02-15T14:08:34.074Z,14.83
2019-02-15T14:11:02.851Z,13.83
2019-02-15T14:13:31.703Z,16.07
2019-02-15T14:16:00.382Z,15.23
2019-02-15T14:18:29.082Z,15.37
2019-02-15T14:20:57.857Z,14.77
2019-02-15T14:23:26.516Z,15.13
2019-02-15T14:25:55.235Z,15.97
2019-02-15T14:28:23.928Z,14.33
2019-02-15T14:30:52.710Z,14.87
2019-02-15T14:33:21.386Z,15.47
2019-02-15T14:35:50.167Z,13.80
2019-02-15T14:38:18.879Z,15.30
2019-02-15T14:40:47.693Z,14.40
2019-02-15T14:43:16.502Z,13.93
2019-02-15T14:45:45.230Z,13.33
2019-02-15T14:48:14.119Z,13.50
2019-02-15T14:50:42.898Z,13.37
2019-02-15T14:53:11.577Z,14.27
2019-02-15T14:55:40.306Z,12.60
2019-02-15T14:58:09.155Z,14.00
2019-02-15T15:00:38.037Z,14.37
2019-02-15T15:03:06.776Z,13.50
2019-02-15T15:05:35.532Z,13.67
2019-02-15T15:08:04.224Z,12.80
2019-02-15T15:10:32.889Z,11.93
2019-02-15T15:13:01.813Z,12.33
2019-02-15T15:15:30.540Z,11.63
2019-02-15T15:18:10.737Z,13.40
2019-02-15T15:20:29.752Z,12.60
2019-02-15T15:22:58.581Z,13.20
2019-02-15T15:25:27.351Z,12.43
2019-02-15T15:27:56.077Z,11.53
2019-02-15T15:30:25.847Z,12.27
2019-02-15T15:32:54.640Z,12.17
2019-02-15T15:35:23.365Z,11.67
2019-02-15T15:37:52.176Z,11.67
2019-02-15T15:40:20.892Z,12.03
2019-02-15T15:42:49.580Z,11.57
2019-02-15T15:45:18.748Z,12.60
2019-02-15T15:47:47.488Z,11.90
2019-02-15T15:50:16.138Z,12.87
2019-02-15T15:52:44.854Z,12.87
2019-02-15T15:55:13.632Z,13.30
2019-02-15T15:57:42.325Z,14.07
2019-02-15T16:00:11.581Z,13.80
2019-02-15T16:02:40.235Z,14.13
2019-02-15T16:05:09.038Z,13.40
2019-02-15T16:07:37.859Z,14.00
2019-02-15T16:10:07.382Z,14.10
2019-02-15T16:12:36.052Z,14.10
2019-02-15T16:15:04.804Z,13.90
2019-02-15T16:17:33.546Z,13.20
2019-02-15T16:20:02.244Z,13.73
2019-02-15T16:22:30.891Z,14.53
2019-02-15T16:24:59.620Z,14.07
2019-02-15T16:27:28.386Z,13.93
2019-02-15T16:29:57.119Z,14.00
2019-02-15T16:32:26.858Z,13.57
2019-02-15T16:34:55.522Z,14.00
2019-02-15T16:37:24.322Z,14.27
2019-02-15T16:39:53.092Z,14.40
2019-02-15T16:42:21.949Z,14.47
2019-02-15T16:44:50.636Z,13.47
2019-02-15T16:47:19.393Z,13.97
2019-02-15T16:49:48.053Z,13.90
2019-02-15T16:52:16.771Z,14.60
2019-02-15T16:54:45.423Z,13.93
2019-02-15T16:57:14.163Z,14.57
2019-02-15T16:59:43.666Z,14.33
2019-02-15T17:02:12.391Z,14.07
2019-02-15T17:04:41.070Z,14.70
2019-02-15T17:07:09.881Z,14.57
2019-02-15T17:09:39.851Z,14.20
2019-02-15T17:12:08.730Z,14.60
2019-02-15T17:14:37.775Z,14.17
2019-02-15T17:17:06.727Z,14.73
2019-02-15T17:19:35.872Z,13.67
2019-02-15T17:22:04.931Z,13.80
2019-02-15T17:24:33.871Z,13.53
2019-02-15T17:27:03.225Z,14.40
2019-02-15T17:29:32.208Z,14.07
2019-02-15T17:32:01.439Z,14.87
2019-02-15T17:34:30.520Z,14.23
2019-02-15T17:36:59.362Z,14.30
2019-02-15T17:39:28.238Z,13.90
2019-02-15T17:41:57.127Z,13.33
2019-02-15T17:44:26.089Z,13.67
2019-02-15T17:46:55.245Z,12.13
2019-02-15T17:49:24.304Z,12.20
2019-02-15T17:51:53.132Z,12.63
2019-02-15T17:54:22.123Z,12.47
2019-02-15T17:56:50.983Z,12.27
2019-02-15T17:59:20.046Z,13.30
2019-02-15T18:01:49.041Z,12.83
2019-02-15T18:04:19.058Z,12.77
2019-02-15T18:06:47.799Z,12.53
2019-02-15T18:09:16.525Z,12.83
2019-02-15T18:11:45.261Z,12.03
2019-02-15T18:14:14.013Z,12.70
2019-02-15T18:16:45.515Z,12.13
2019-02-15T18:19:14.175Z,12.17
2019-02-15T18:21:42.928Z,12.30
2019-02-15T18:24:11.607Z,13.03
2019-02-15T18:26:40.234Z,13.63
2019-02-15T18:29:08.962Z,13.60
2019-02-15T18:31:37.703Z,13.40
2019-02-15T18:34:06.370Z,14.07
2019-02-15T18:36:35.097Z,13.70
2019-02-15T18:39:05.012Z,13.70
2019-02-15T18:41:33.670Z,14.80
2019-02-15T18:44:02.312Z,16.03
2019-02-15T18:46:31.034Z,16.00
2019-02-15T18:49:00.572Z,16.50
2019-02-15T18:51:29.392Z,16.77
2019-02-15T18:53:58.013Z,16.90
2019-02-15T18:56:26.708Z,18.20
2019-02-15T18:58:55.489Z,18.33
2019-02-15T19:01:24.165Z,19.43
2019-02-15T19:03:52.903Z,18.30
2019-02-15T19:06:21.574Z,18.20
2019-02-15T19:08:50.266Z,18.47
2019-02-15T19:11:18.920Z,20.10
2019-02-15T19:13:47.628Z,21.03
2019-02-15T19:16:16.340Z,21.10
2019-02-15T19:18:45.038Z,20.73
2019-02-15T19:21:13.727Z,21.13
2019-02-15T19:23:42.444Z,20.23
2019-02-15T19:26:11.190Z,20.67
2019-02-15T19:28:39.920Z,21.33
2019-02-15T19:31:08.872Z,20.70
2019-02-15T19:33:37.794Z,21.17
2019-02-15T19:36:06.760Z,20.77
2019-02-15T19:38:35.528Z,20.13
2019-02-15T19:41:04.426Z,21.03
2019-02-15T19:43:33.204Z,21.23
2019-02-15T19:46:01.996Z,20.53
2019-02-15T19:48:30.698Z,21.67
2019-02-15T19:50:59.440Z,22.43
2019-02-15T19:53:28.143Z,24.03
2019-02-15T19:55:56.831Z,21.60
2019-02-15T19:58:25.649Z,22.13
2019-02-15T20:00:54.404Z,19.60
2019-02-15T20:03:23.105Z,21.50
2019-02-15T20:05:51.810Z,20.77
2019-02-15T20:08:20.620Z,19.77
2019-02-15T20:10:49.371Z,21.13
2019-02-15T20:13:18.068Z,20.17
2019-02-15T20:15:46.827Z,21.43
2019-02-15T20:18:15.547Z,22.10
2019-02-15T20:20:44.198Z,22.17
2019-02-15T20:23:12.899Z,22.03
2019-02-15T20:25:41.594Z,21.47
2019-02-15T20:28:14.207Z,22.37
2019-02-15T20:30:40.714Z,23.73
2019-02-15T20:33:09.426Z,22.80
2019-02-15T20:35:38.160Z,23.53
2019-02-15T20:38:06.831Z,22.73
2019-02-15T20:40:35.470Z,22.13
2019-02-15T20:43:04.054Z,21.20
2019-02-15T20:45:32.762Z,23.07
2019-02-15T20:48:01.563Z,23.10
2019-02-15T20:50:30.402Z,22.50
2019-02-15T20:52:59.195Z,23.93
2019-02-15T20:55:27.949Z,21.83
2019-02-15T20:57:56.658Z,20.97
2019-02-15T21:00:25.506Z,22.30
2019-02-15T21:02:54.218Z,22.27
2019-02-15T21:05:22.993Z,21.37
2019-02-15T21:07:51.808Z,21.43
2019-02-15T21:10:20.456Z,21.87
2019-02-15T21:12:49.190Z,24.20
2019-02-15T21:15:17.948Z,24.57
2019-02-15T21:17:46.791Z,23.17
2019-02-15T21:20:15.677Z,24.30
2019-02-15T21:22:44.408Z,24.30
2019-02-15T21:25:13.228Z,21.57
2019-02-15T21:27:41.921Z,22.37
2019-02-15T21:30:11.597Z,22.57
2019-02-15T21:32:40.324Z,21.07
2019-02-15T21:35:09.043Z,21.30
2019-02-15T21:37:37.753Z,22.63
2019-02-15T21:40:07.195Z,20.73
2019-02-15T21:42:35.870Z,21.00
2019-02-15T21:45:04.588Z,21.60
2019-02-15T21:47:33.272Z,20.60
2019-02-15T21:50:02.312Z,22.17
2019-02-15T21:52:30.987Z,21.33
2019-02-15T21:54:59.674Z,22.47
2019-02-15T21:57:28.413Z,20.83
2019-02-15T21:59:57.161Z,22.03
2019-02-15T22:02:25.856Z,20.47
2019-02-15T22:04:54.718Z,22.17
2019-02-15T22:07:23.548Z,19.93
2019-02-15T22:09:52.269Z,20.80
2019-02-15T22:12:20.943Z,22.03
2019-02-15T22:14:49.727Z,22.13
2019-02-15T22:17:18.444Z,22.93
2019-02-15T22:19:50.764Z,23.03
2019-02-15T22:22:19.490Z,22.93
2019-02-15T22:24:48.232Z,22.07
2019-02-15T22:27:16.994Z,22.63
2019-02-15T22:29:45.727Z,21.37
2019-02-15T22:32:14.394Z,20.43
2019-02-15T22:34:43.057Z,21.17
2019-02-15T22:37:11.842Z,20.00
2019-02-15T22:39:40.580Z,22.05
2019-02-15T22:42:09.353Z,20.27
2019-02-15T22:44:38.026Z,20.77
2019-02-15T22:47:06.736Z,20.80
2019-02-15T22:49:43.079Z,19.35
2019-02-15T22:52:05.953Z,18.93
2019-02-15T22:54:34.692Z,20.73
2019-02-15T22:57:03.380Z,19.23
2019-02-15T22:59:32.032Z,19.07
2019-02-15T23:02:00.760Z,19.70
2019-02-15T23:04:29.429Z,19.27
2019-02-15T23:06:58.117Z,20.03
2019-02-15T23:09:26.827Z,19.00
2019-02-15T23:11:55.541Z,18.73
2019-02-15T23:14:24.219Z,20.67
2019-02-15T23:16:52.948Z,20.17
2019-02-15T23:19:21.707Z,19.50
2019-02-15T23:21:50.517Z,20.43
2019-02-15T23:24:19.205Z,21.52
2019-02-15T23:26:47.895Z,22.13
2019-02-15T23:29:16.599Z,22.87
2019-02-15T23:31:45.297Z,23.55
2019-02-15T23:34:14.065Z,23.00
2019-02-15T23:36:42.846Z,21.27
2019-02-15T23:39:11.548Z,22.00
2019-02-15T23:41:40.209Z,20.97
2019-02-15T23:44:09.008Z,21.02
2019-02-15T23:46:37.721Z,20.00
2019-02-15T23:49:06.439Z,20.35
2019-02-15T23:51:35.134Z,20.68
2019-02-15T23:54:03.834Z,20.80
2019-02-15T23:56:32.536Z,19.73
2019-02-15T23:59:01.288Z,20.50
